Terminal Aerodrome Forecast
Issued by NWS

Home | Current Version | Previous Version | Text Only | Print | Product List | Glossary On
Versions: 1 2 3 4 5 6 7 8 9 10 11 12 13
000
FTUS45 KGJT 292320
TAFDRO
TAF
KDRO 292320Z 3000/3024 22004KT P6SM -RA FEW030 BKN070 OVC080
     FM300200 04006KT P6SM VCSH BKN080
     FM301400 00000KT P6SM VCSH BKN130
     FM301800 20004KT P6SM VCSH BKN100
     FM302100 27008KT P6SM VCTS BKN150CB=

USA.gov is the U.S. government's official web portal to all federal, state and local government web resources and services.